Time;durP1;ratioP1;P1;durP2;ratioP2;P2;SDS_P1;SDS_P2;PMS_P1;PMS_P2;Temp;Humidity;BMP_temperature;BMP_pressure;BME280_temperature;BME280_humidity;BME280_pressure;Samples;Min_cycle;Max_cycle;Signal;HPM_P1;HPM_P2
2023/11/20 00:01:24;;;;;;;3.30;1.40;;;11.20;99.90;;;;;;5041381;28;20239;-75
2023/11/20 00:03:50;;;;;;;1.40;1.03;;;11.30;99.90;;;;;;5045822;28;20572;-76
2023/11/20 00:06:16;;;;;;;13.07;2.80;;;11.30;99.90;;;;;;5053111;28;20452;-75
2023/11/20 00:08:42;;;;;;;6.30;1.30;;;11.30;99.90;;;;;;5074504;28;20449;-75
2023/11/20 00:11:07;;;;;;;10.17;2.10;;;11.30;99.90;;;;;;5050606;28;20450;-75
2023/11/20 00:13:33;;;;;;;7.17;1.50;;;11.30;99.90;;;;;;5068311;28;20219;-75
2023/11/20 00:15:59;;;;;;;10.00;1.97;;;11.30;99.90;;;;;;5032653;28;20601;-76
2023/11/20 00:18:25;;;;;;;3.73;1.67;;;11.30;99.90;;;;;;5033916;28;20303;-76
2023/11/20 00:20:50;;;;;;;5.77;1.43;;;11.30;99.90;;;;;;5042323;28;20311;-76
2023/11/20 00:23:16;;;;;;;3.43;1.70;;;11.30;99.90;;;;;;5054144;28;20276;-76
2023/11/20 00:25:42;;;;;;;4.67;1.30;;;11.30;99.90;;;;;;5041887;28;20228;-76
2023/11/20 00:28:08;;;;;;;7.13;1.47;;;11.30;99.90;;;;;;5053535;28;20276;-75
2023/11/20 00:30:33;;;;;;;4.47;1.63;;;11.30;99.90;;;;;;5033769;28;20294;-76
2023/11/20 00:33:00;;;;;;;14.47;2.13;;;11.20;99.90;;;;;;5054813;28;20484;-75
2023/11/20 00:35:25;;;;;;;7.73;1.80;;;11.20;99.90;;;;;;5032755;28;20215;-75
2023/11/20 00:37:51;;;;;;;3.70;1.33;;;11.20;99.90;;;;;;5035849;28;20444;-76
2023/11/20 00:40:18;;;;;;;2.83;1.57;;;11.20;99.90;;;;;;5051340;28;20716;-76
2023/11/20 00:42:44;;;;;;;5.23;1.60;;;11.20;99.90;;;;;;5051012;28;20247;-76
2023/11/20 00:45:10;;;;;;;4.47;1.60;;;11.20;99.90;;;;;;5032928;28;20458;-75
2023/11/20 00:47:36;;;;;;;3.70;2.30;;;11.20;99.90;;;;;;5065978;28;20462;-76
2023/11/20 00:50:01;;;;;;;5.07;1.60;;;11.20;99.90;;;;;;5052749;28;20604;-75
2023/11/20 00:52:29;;;;;;;4.20;1.47;;;11.20;99.90;;;;;;5028923;28;20223;-75
2023/11/20 00:54:56;;;;;;;4.23;1.57;;;11.10;99.90;;;;;;5051557;28;20219;-76
2023/11/20 00:57:22;;;;;;;3.67;1.20;;;11.20;99.90;;;;;;5050817;28;20963;-76
2023/11/20 00:59:49;;;;;;;5.23;1.93;;;11.10;99.90;;;;;;5049964;28;20459;-76
2023/11/20 01:02:15;;;;;;;2.50;1.30;;;11.10;99.90;;;;;;5031344;28;20220;-76
2023/11/20 01:04:41;;;;;;;4.70;1.57;;;11.20;99.90;;;;;;5045447;28;20481;-76
2023/11/20 01:07:07;;;;;;;9.10;1.73;;;11.10;99.90;;;;;;5064516;28;20239;-75
2023/11/20 01:09:32;;;;;;;6.00;1.30;;;11.10;99.90;;;;;;5052485;28;20224;-75
2023/11/20 01:11:58;;;;;;;5.93;1.80;;;11.10;99.90;;;;;;5053429;28;20299;-75
2023/11/20 01:14:24;;;;;;;7.00;1.50;;;11.10;99.90;;;;;;5050730;28;20568;-76
2023/11/20 01:16:50;;;;;;;5.97;1.63;;;11.20;99.90;;;;;;5050033;28;20254;-76
2023/11/20 01:19:16;;;;;;;5.30;1.40;;;11.10;99.90;;;;;;5046778;28;20235;-76
2023/11/20 01:21:44;;;;;;;7.33;2.30;;;11.10;99.90;;;;;;5038625;28;20216;-76
2023/11/20 01:24:09;;;;;;;10.40;2.30;;;11.10;99.90;;;;;;5033495;28;20443;-75
2023/11/20 01:26:38;;;;;;;8.67;1.90;;;11.10;99.90;;;;;;5044572;28;20805;-76
2023/11/20 01:29:05;;;;;;;8.37;1.87;;;11.10;99.90;;;;;;5031965;28;20220;-75
2023/11/20 01:31:31;;;;;;;4.53;1.83;;;11.10;99.90;;;;;;5036382;28;20825;-75
2023/11/20 01:33:56;;;;;;;4.93;1.50;;;11.10;99.90;;;;;;5046326;28;20211;-76
2023/11/20 01:36:22;;;;;;;4.60;1.90;;;11.10;99.90;;;;;;5032495;28;20450;-75
2023/11/20 01:38:50;;;;;;;6.60;2.30;;;11.10;99.90;;;;;;5054912;28;20747;-75
2023/11/20 01:41:17;;;;;;;6.40;2.03;;;11.10;99.90;;;;;;5033527;28;20520;-76
2023/11/20 01:43:42;;;;;;;7.00;1.47;;;11.10;99.90;;;;;;5032203;28;20455;-76
2023/11/20 01:46:11;;;;;;;4.00;1.63;;;11.10;99.90;;;;;;5043004;28;20469;-75
2023/11/20 01:48:40;;;;;;;2.00;1.30;;;11.10;99.90;;;;;;5032228;28;20270;-75
2023/11/20 01:51:07;;;;;;;5.27;1.80;;;11.10;99.90;;;;;;5047663;28;20459;-75
2023/11/20 01:53:34;;;;;;;9.33;1.90;;;11.00;99.90;;;;;;5033244;28;20454;-76
2023/11/20 01:56:00;;;;;;;9.40;1.40;;;11.00;99.90;;;;;;5054029;28;20352;-76
2023/11/20 01:58:26;;;;;;;6.03;1.23;;;11.00;99.90;;;;;;5038860;28;20484;-76
2023/11/20 02:00:53;;;;;;;4.37;1.10;;;11.00;99.90;;;;;;5034007;28;20286;-75
2023/11/20 02:03:20;;;;;;;10.20;1.63;;;11.00;99.90;;;;;;5043920;28;20523;-76
2023/11/20 02:05:46;;;;;;;5.13;1.50;;;11.00;99.90;;;;;;5048149;28;20545;-75
2023/11/20 02:08:13;;;;;;;5.87;1.70;;;11.00;99.90;;;;;;5036346;28;20501;-76
2023/11/20 02:10:40;;;;;;;4.83;1.77;;;11.00;99.90;;;;;;5049018;28;20450;-76
2023/11/20 02:13:06;;;;;;;6.93;1.80;;;11.10;99.90;;;;;;5034514;28;20511;-75
2023/11/20 02:15:32;;;;;;;6.93;1.50;;;11.10;99.90;;;;;;5066175;28;20357;-76
2023/11/20 02:17:58;;;;;;;5.77;1.80;;;11.10;99.90;;;;;;5050746;28;20298;-76
2023/11/20 02:20:24;;;;;;;2.73;1.17;;;11.10;99.90;;;;;;5048502;28;20535;-76
2023/11/20 02:22:50;;;;;;;3.30;0.90;;;11.10;99.90;;;;;;5037785;28;20246;-76
2023/11/20 02:25:17;;;;;;;7.80;2.00;;;11.10;99.90;;;;;;5052237;28;20552;-76
2023/11/20 02:28:25;;;;;;;3.50;1.90;;;11.10;99.90;;;;;;5056217;28;20519;-76
2023/11/20 02:30:53;;;;;;;5.13;2.10;;;11.10;99.90;;;;;;5027327;28;20553;-76
2023/11/20 02:33:19;;;;;;;4.00;2.20;;;11.10;99.90;;;;;;5032966;28;20477;-76
2023/11/20 02:35:45;;;;;;;4.87;1.90;;;11.10;99.90;;;;;;5032553;28;20519;-75
2023/11/20 02:38:11;;;;;;;3.30;1.47;;;11.10;99.90;;;;;;5046491;28;20597;-75
2023/11/20 02:40:36;;;;;;;6.17;1.90;;;11.10;99.90;;;;;;5053968;28;20227;-76
2023/11/20 02:43:02;;;;;;;4.30;1.67;;;11.10;99.90;;;;;;5053326;28;20220;-75
2023/11/20 02:45:28;;;;;;;5.07;1.70;;;11.10;99.90;;;;;;5029282;28;20224;-76
2023/11/20 02:47:54;;;;;;;12.63;1.80;;;11.10;99.90;;;;;;5048005;28;20306;-75
2023/11/20 02:50:20;;;;;;;5.67;2.13;;;11.10;99.90;;;;;;5066520;28;20322;-75
2023/11/20 02:52:47;;;;;;;3.83;1.57;;;11.10;99.90;;;;;;5048811;28;20450;-76
2023/11/20 02:55:13;;;;;;;6.43;1.63;;;11.10;99.90;;;;;;5055585;28;20461;-76
2023/11/20 02:57:38;;;;;;;4.93;1.57;;;11.10;99.90;;;;;;5051554;28;20370;-76
2023/11/20 03:00:06;;;;;;;5.50;1.50;;;11.10;99.90;;;;;;5040755;28;20497;-76
2023/11/20 03:02:32;;;;;;;5.93;1.50;;;11.10;99.90;;;;;;5037751;28;20229;-75
2023/11/20 03:04:58;;;;;;;4.50;1.20;;;11.10;99.90;;;;;;5053084;28;20473;-76
2023/11/20 03:07:23;;;;;;;9.77;2.07;;;11.10;99.90;;;;;;5055058;28;20612;-76
2023/11/20 03:09:49;;;;;;;1.80;1.50;;;11.10;99.90;;;;;;5053316;28;20266;-76
2023/11/20 03:12:15;;;;;;;5.70;1.50;;;11.10;99.90;;;;;;5052691;28;20215;-76
2023/11/20 03:14:40;;;;;;;7.97;1.83;;;11.10;99.90;;;;;;5044146;28;20234;-75
2023/11/20 03:17:06;;;;;;;3.40;1.23;;;11.10;99.90;;;;;;5052667;28;20219;-76
2023/11/20 03:19:32;;;;;;;6.00;1.60;;;11.10;99.90;;;;;;5052506;28;20220;-75
2023/11/20 03:21:57;;;;;;;3.90;2.50;;;11.00;99.90;;;;;;5066248;28;20220;-72
2023/11/20 03:24:23;;;;;;;2.20;1.40;;;11.00;99.90;;;;;;5036433;28;20224;-76
2023/11/20 03:26:49;;;;;;;4.20;1.40;;;11.00;99.90;;;;;;5053473;28;20216;-76
2023/11/20 03:29:15;;;;;;;13.30;1.57;;;11.00;99.90;;;;;;5052545;28;20216;-76
2023/11/20 03:31:41;;;;;;;2.40;1.40;;;11.00;99.90;;;;;;5031218;28;20920;-76
2023/11/20 03:34:07;;;;;;;3.93;1.20;;;11.00;99.90;;;;;;5071339;28;20219;-76
2023/11/20 03:36:34;;;;;;;3.00;1.77;;;10.90;99.90;;;;;;5034926;28;20435;-76
2023/11/20 03:39:00;;;;;;;4.27;1.27;;;10.90;99.90;;;;;;5035699;28;20948;-75
2023/11/20 03:41:26;;;;;;;2.93;1.50;;;10.90;99.90;;;;;;5037709;28;20474;-76
2023/11/20 03:43:52;;;;;;;7.07;1.60;;;10.90;99.90;;;;;;5052482;28;20212;-77
2023/11/20 03:46:19;;;;;;;2.43;1.30;;;10.90;99.90;;;;;;5049066;28;20466;-76
2023/11/20 03:48:45;;;;;;;4.83;1.47;;;10.90;99.90;;;;;;5036229;28;20454;-76
2023/11/20 03:51:10;;;;;;;5.40;1.63;;;10.90;99.90;;;;;;5036881;28;20454;-75
2023/11/20 03:53:36;;;;;;;3.53;1.30;;;10.90;99.90;;;;;;5047310;28;20220;-76
2023/11/20 03:56:02;;;;;;;1.57;1.20;;;10.90;99.90;;;;;;5048853;28;20293;-76
2023/11/20 03:58:28;;;;;;;8.13;1.70;;;10.90;99.90;;;;;;5036864;28;20227;-76
2023/11/20 04:00:53;;;;;;;5.00;1.77;;;10.90;99.90;;;;;;5034306;28;20224;-74
2023/11/20 04:03:19;;;;;;;4.53;1.20;;;10.90;99.90;;;;;;5067466;28;20211;-75
2023/11/20 04:05:48;;;;;;;6.40;1.37;;;10.90;99.90;;;;;;5068842;28;20306;-76
2023/11/20 04:08:13;;;;;;;2.07;1.30;;;10.90;99.90;;;;;;5036370;28;20887;-76
2023/11/20 04:10:39;;;;;;;3.13;1.43;;;10.90;99.90;;;;;;5034742;28;20482;-76
2023/11/20 04:13:05;;;;;;;9.47;1.40;;;10.90;99.90;;;;;;5032572;28;20220;-75
2023/11/20 04:15:31;;;;;;;4.63;1.40;;;10.90;99.90;;;;;;5074806;28;20294;-75
2023/11/20 04:17:56;;;;;;;2.60;1.27;;;10.90;99.90;;;;;;5054329;28;20546;-75
2023/11/20 04:20:22;;;;;;;5.33;1.60;;;10.90;99.90;;;;;;5032576;28;20722;-76
2023/11/20 04:22:49;;;;;;;4.27;1.20;;;10.90;99.90;;;;;;5047640;28;20208;-76
2023/11/20 04:25:14;;;;;;;3.20;1.33;;;10.90;99.90;;;;;;5051175;28;20227;-76
2023/11/20 04:27:40;;;;;;;6.40;1.30;;;10.90;99.90;;;;;;5051691;28;20454;-75
2023/11/20 04:30:08;;;;;;;5.20;1.23;;;10.90;99.90;;;;;;5052506;28;20285;-76
2023/11/20 04:32:33;;;;;;;6.50;2.17;;;10.80;99.90;;;;;;5064264;28;20216;-77
2023/11/20 04:34:59;;;;;;;8.17;2.23;;;10.80;99.90;;;;;;5045538;28;20489;-75
2023/11/20 04:37:25;;;;;;;5.53;1.70;;;10.80;99.90;;;;;;5046881;28;20212;-76
2023/11/20 04:39:52;;;;;;;4.27;1.50;;;10.80;99.90;;;;;;5042830;28;20232;-76
2023/11/20 04:42:17;;;;;;;4.40;1.40;;;10.80;99.90;;;;;;5048802;28;20219;-76
2023/11/20 04:44:43;;;;;;;5.23;1.90;;;10.80;99.90;;;;;;5041903;28;20459;-76
2023/11/20 04:47:09;;;;;;;8.40;1.80;;;10.80;99.90;;;;;;5068634;28;20754;-75
2023/11/20 04:49:37;;;;;;;6.00;1.60;;;10.70;99.90;;;;;;5051780;28;20249;-76
2023/11/20 04:52:03;;;;;;;1.23;1.23;;;10.70;99.90;;;;;;5050222;28;20224;-75
2023/11/20 04:54:29;;;;;;;2.00;1.20;;;10.80;99.90;;;;;;5035294;28;20504;-76
2023/11/20 04:56:58;;;;;;;2.67;1.40;;;10.70;99.90;;;;;;5051276;28;20539;-76
2023/11/20 04:59:24;;;;;;;4.50;1.23;;;10.80;99.90;;;;;;5051294;28;20212;-76
2023/11/20 05:01:50;;;;;;;8.40;1.63;;;10.80;99.90;;;;;;5052856;28;20465;-76
2023/11/20 05:04:16;;;;;;;7.23;1.37;;;10.80;99.90;;;;;;5048570;28;20457;-75
2023/11/20 05:06:41;;;;;;;3.43;1.27;;;10.80;99.90;;;;;;5067846;28;20227;-76
2023/11/20 05:09:07;;;;;;;4.73;1.37;;;10.80;99.90;;;;;;5080302;28;20216;-75
2023/11/20 05:11:35;;;;;;;4.07;1.73;;;10.80;99.90;;;;;;5069831;28;20298;-75
2023/11/20 05:14:01;;;;;;;5.17;1.33;;;10.80;99.90;;;;;;5065857;28;20310;-75
2023/11/20 05:16:28;;;;;;;2.50;1.20;;;10.80;99.90;;;;;;5054570;28;20524;-75
2023/11/20 05:18:55;;;;;;;15.93;1.83;;;10.70;99.90;;;;;;5037262;28;20616;-74
2023/11/20 05:21:20;;;;;;;2.43;0.90;;;10.70;99.90;;;;;;5066249;28;20504;-76
2023/11/20 05:23:46;;;;;;;4.07;1.27;;;10.70;99.90;;;;;;5049288;28;20963;-75
2023/11/20 05:26:12;;;;;;;3.53;1.40;;;10.70;99.90;;;;;;5055177;28;20219;-76
2023/11/20 05:28:37;;;;;;;1.57;1.10;;;10.70;99.90;;;;;;5033560;28;20232;-76
2023/11/20 05:31:04;;;;;;;7.47;1.50;;;10.70;99.90;;;;;;5070314;28;20289;-75
2023/11/20 05:33:31;;;;;;;1.07;0.80;;;10.70;99.90;;;;;;5055484;28;20220;-76
2023/11/20 05:35:56;;;;;;;2.17;1.20;;;10.70;99.90;;;;;;5045862;28;20454;-76
2023/11/20 05:38:22;;;;;;;4.50;1.80;;;10.60;99.90;;;;;;5055716;28;20854;-76
2023/11/20 05:40:47;;;;;;;3.07;1.33;;;10.70;99.90;;;;;;5070326;28;20223;-75
2023/11/20 05:43:13;;;;;;;18.23;1.67;;;10.70;99.90;;;;;;5069910;28;20232;-76
2023/11/20 05:45:38;;;;;;;2.80;1.47;;;10.60;99.90;;;;;;5045195;28;20235;-75
2023/11/20 05:48:04;;;;;;;5.73;1.40;;;10.60;99.90;;;;;;5045693;28;20224;-75
2023/11/20 05:50:30;;;;;;;1.30;1.20;;;10.60;99.90;;;;;;5063241;28;20232;-76
2023/11/20 05:52:56;;;;;;;1.63;1.27;;;10.60;99.90;;;;;;5065059;28;20504;-75
2023/11/20 05:55:21;;;;;;;2.53;1.63;;;10.50;99.90;;;;;;5049220;28;20783;-75
2023/11/20 05:57:47;;;;;;;3.53;1.60;;;10.60;99.90;;;;;;5062914;28;20736;-75
2023/11/20 06:00:13;;;;;;;3.70;1.20;;;10.60;99.90;;;;;;5032157;28;20217;-75
2023/11/20 06:02:38;;;;;;;4.63;1.03;;;10.60;99.90;;;;;;5063105;28;20224;-75
2023/11/20 06:05:04;;;;;;;1.17;0.93;;;10.60;99.90;;;;;;5044802;28;20228;-74
2023/11/20 06:07:30;;;;;;;1.53;1.10;;;10.60;99.90;;;;;;5025847;28;20235;-75
2023/11/20 06:09:56;;;;;;;1.57;1.20;;;10.50;99.90;;;;;;5028670;28;20231;-75
2023/11/20 06:12:21;;;;;;;2.30;0.90;;;10.40;99.90;;;;;;5060901;28;20462;-75
2023/11/20 06:14:47;;;;;;;2.67;1.40;;;10.30;99.90;;;;;;5064344;28;20302;-75
2023/11/20 06:17:13;;;;;;;1.87;1.17;;;10.40;99.90;;;;;;5064773;28;20216;-76
2023/11/20 06:19:38;;;;;;;0.80;0.80;;;10.30;99.90;;;;;;5043874;28;20264;-75
2023/11/20 06:22:04;;;;;;;2.30;1.07;;;10.30;99.90;;;;;;5066675;28;20235;-76
2023/11/20 06:24:32;;;;;;;1.40;1.10;;;10.50;99.90;;;;;;5046936;28;20234;-76
2023/11/20 06:26:57;;;;;;;2.63;1.20;;;10.40;99.90;;;;;;5049341;28;20220;-76
2023/11/20 06:29:23;;;;;;;1.50;1.00;;;10.30;99.90;;;;;;5051675;28;20526;-76
2023/11/20 06:31:49;;;;;;;3.13;1.30;;;10.40;99.90;;;;;;5047816;28;20219;-76
2023/11/20 06:34:14;;;;;;;2.50;1.10;;;10.40;99.90;;;;;;5052358;28;20219;-76
2023/11/20 06:36:40;;;;;;;3.87;1.67;;;10.40;99.90;;;;;;5048382;28;20304;-76
2023/11/20 06:39:06;;;;;;;1.80;0.80;;;10.40;99.90;;;;;;5053602;28;20226;-77
2023/11/20 06:41:32;;;;;;;2.20;1.10;;;10.40;99.90;;;;;;5053867;28;20223;-76
2023/11/20 06:43:58;;;;;;;3.70;1.30;;;10.50;99.90;;;;;;5055989;28;20465;-76
2023/11/20 06:46:23;;;;;;;3.80;0.93;;;10.50;99.90;;;;;;5055163;28;20223;-76
2023/11/20 06:48:49;;;;;;;1.83;1.10;;;10.40;99.90;;;;;;5071295;28;20310;-75
2023/11/20 06:51:16;;;;;;;1.80;0.87;;;10.40;99.90;;;;;;5052970;28;20230;-76
2023/11/20 06:53:45;;;;;;;3.07;1.30;;;10.40;99.90;;;;;;5075909;28;20219;-76
2023/11/20 06:56:17;;;;;;;2.40;1.20;;;10.50;99.90;;;;;;5052621;28;21031;-75
2023/11/20 06:58:43;;;;;;;1.17;0.90;;;10.50;99.90;;;;;;5069757;28;20465;-76
2023/11/20 07:01:08;;;;;;;5.10;1.33;;;10.40;99.90;;;;;;5048568;28;20459;-75
2023/11/20 07:03:34;;;;;;;0.80;0.80;;;10.40;99.90;;;;;;5052978;28;20640;-75
2023/11/20 07:06:00;;;;;;;4.80;1.10;;;10.20;99.90;;;;;;5037454;28;20740;-76
2023/11/20 07:08:27;;;;;;;1.00;0.90;;;10.10;99.90;;;;;;5053446;28;20682;-76
2023/11/20 07:10:53;;;;;;;0.70;0.70;;;10.00;99.90;;;;;;5058290;28;20303;-76
2023/11/20 07:13:18;;;;;;;0.93;0.80;;;10.10;99.90;;;;;;5051336;28;20464;-76
2023/11/20 07:15:44;;;;;;;3.70;1.13;;;10.00;99.90;;;;;;5065447;28;20454;-75
2023/11/20 07:18:10;;;;;;;1.53;1.10;;;10.00;99.90;;;;;;5050945;28;20219;-76
2023/11/20 07:20:36;;;;;;;0.73;0.73;;;10.00;99.90;;;;;;5052484;28;20306;-76
2023/11/20 07:23:04;;;;;;;3.57;0.83;;;10.10;99.90;;;;;;5050125;28;20216;-75
2023/11/20 07:25:35;;;;;;;0.73;0.70;;;10.10;99.90;;;;;;5066207;28;21021;-76
2023/11/20 07:28:02;;;;;;;5.87;1.10;;;10.10;99.90;;;;;;5069884;28;20457;-76
2023/11/20 07:30:28;;;;;;;2.10;0.83;;;10.10;99.90;;;;;;5038861;28;20466;-75
2023/11/20 07:32:55;;;;;;;1.83;1.17;;;10.10;99.90;;;;;;5042995;28;20469;-76
2023/11/20 07:35:21;;;;;;;5.20;1.20;;;10.10;99.90;;;;;;5067835;28;20523;-76
2023/11/20 07:37:47;;;;;;;6.87;1.07;;;10.10;99.90;;;;;;5044950;28;20486;-76
2023/11/20 07:40:13;;;;;;;2.87;0.93;;;10.00;99.90;;;;;;5053397;28;20478;-76
2023/11/20 07:42:39;;;;;;;4.00;1.20;;;10.00;99.90;;;;;;5051097;28;20215;-76
2023/11/20 07:45:06;;;;;;;1.90;1.00;;;10.00;99.90;;;;;;5069717;28;20219;-76
2023/11/20 07:47:32;;;;;;;0.90;0.60;;;10.10;99.90;;;;;;5034847;28;20497;-76
2023/11/20 07:49:57;;;;;;;2.23;1.20;;;10.10;99.90;;;;;;5077119;28;20445;-75
2023/11/20 07:52:23;;;;;;;1.70;1.00;;;10.10;99.90;;;;;;5032079;28;20598;-76
2023/11/20 07:54:49;;;;;;;3.03;1.07;;;10.10;99.90;;;;;;5051190;28;20216;-75
2023/11/20 07:57:16;;;;;;;1.13;1.03;;;10.20;99.90;;;;;;5050262;28;20230;-75
2023/11/20 07:59:42;;;;;;;3.33;1.07;;;10.10;99.90;;;;;;5043473;28;20276;-76
2023/11/20 08:02:08;;;;;;;0.77;0.77;;;10.10;99.90;;;;;;5051145;28;20458;-76
2023/11/20 08:04:34;;;;;;;1.00;0.90;;;10.10;99.90;;;;;;5071593;28;20224;-75
2023/11/20 08:07:00;;;;;;;2.07;1.20;;;10.10;99.90;;;;;;5070746;28;20515;-76
2023/11/20 08:09:26;;;;;;;3.27;1.07;;;10.20;99.90;;;;;;5048083;28;21061;-76
2023/11/20 08:11:52;;;;;;;1.97;1.20;;;10.20;99.90;;;;;;5062084;28;20216;-75
2023/11/20 08:14:18;;;;;;;1.63;0.70;;;10.30;99.90;;;;;;5039071;28;20711;-76
2023/11/20 08:16:44;;;;;;;2.40;1.10;;;10.30;99.90;;;;;;5064183;28;20303;-76
2023/11/20 08:19:10;;;;;;;2.13;1.10;;;10.40;99.90;;;;;;5049587;28;20963;-75
2023/11/20 08:21:36;;;;;;;3.20;1.20;;;10.50;99.90;;;;;;5082734;28;20231;-76
2023/11/20 08:24:02;;;;;;;3.80;1.27;;;10.50;99.90;;;;;;5039213;28;20629;-75
2023/11/20 08:26:27;;;;;;;3.83;1.00;;;10.60;99.90;;;;;;5051501;28;20278;-76
2023/11/20 08:28:53;;;;;;;2.93;1.00;;;10.60;99.90;;;;;;5069014;28;20224;-76
2023/11/20 08:31:19;;;;;;;1.30;0.90;;;10.70;99.90;;;;;;5050414;28;20232;-76
2023/11/20 08:33:45;;;;;;;1.83;1.00;;;10.70;99.90;;;;;;5057829;28;20310;-76
2023/11/20 08:36:12;;;;;;;7.30;1.33;;;10.80;99.90;;;;;;5042655;28;20689;-75
2023/11/20 08:38:37;;;;;;;5.53;1.10;;;10.90;99.90;;;;;;5065486;28;20450;-75
2023/11/20 08:41:03;;;;;;;3.13;1.27;;;10.90;99.90;;;;;;5063776;28;20482;-75
2023/11/20 08:43:29;;;;;;;1.60;1.13;;;10.90;99.90;;;;;;5065285;28;20220;-76
2023/11/20 08:45:55;;;;;;;4.57;1.27;;;11.00;99.90;;;;;;5048245;28;20255;-76
2023/11/20 08:48:20;;;;;;;2.47;1.30;;;11.10;99.90;;;;;;5044692;28;20242;-76
2023/11/20 08:50:46;;;;;;;1.57;1.13;;;11.10;99.90;;;;;;5032225;28;20455;-76
2023/11/20 08:53:12;;;;;;;2.40;1.27;;;11.20;99.90;;;;;;5052446;28;20216;-76
2023/11/20 08:55:37;;;;;;;6.47;1.20;;;11.20;99.90;;;;;;5074883;28;20655;-76
2023/11/20 08:58:04;;;;;;;3.77;0.97;;;11.20;99.90;;;;;;5042128;28;20212;-76
2023/11/20 09:00:30;;;;;;;1.97;1.00;;;11.30;99.90;;;;;;5047500;28;20223;-76
2023/11/20 09:02:56;;;;;;;3.00;1.03;;;11.40;99.90;;;;;;5043845;28;20485;-75
2023/11/20 09:05:22;;;;;;;4.47;1.27;;;11.50;99.90;;;;;;5046816;28;20477;-76
2023/11/20 09:07:48;;;;;;;4.87;1.30;;;11.60;99.90;;;;;;5045276;28;20952;-75
2023/11/20 09:10:14;;;;;;;4.10;1.23;;;11.60;99.90;;;;;;5042419;28;20704;-76
2023/11/20 09:12:41;;;;;;;5.80;0.87;;;11.60;99.90;;;;;;5035539;28;20752;-77
2023/11/20 09:15:08;;;;;;;1.77;0.97;;;11.60;99.90;;;;;;5049004;28;20225;-75
2023/11/20 09:17:36;;;;;;;2.20;0.90;;;11.60;99.90;;;;;;5047167;28;20443;-76
2023/11/20 09:20:02;;;;;;;2.87;0.97;;;11.60;99.90;;;;;;5067711;28;21019;-76
2023/11/20 09:22:28;;;;;;;4.30;1.67;;;11.60;99.90;;;;;;5049363;28;20458;-76
2023/11/20 09:24:55;;;;;;;3.60;1.07;;;11.60;99.90;;;;;;5071624;28;20909;-76
2023/11/20 09:27:21;;;;;;;2.17;1.17;;;11.60;99.90;;;;;;5049151;28;20220;-76
2023/11/20 09:29:47;;;;;;;4.50;1.60;;;11.60;99.90;;;;;;5030512;28;20500;-76
2023/11/20 09:32:12;;;;;;;5.00;1.47;;;11.60;99.90;;;;;;5064584;28;20224;-76
2023/11/20 09:34:38;;;;;;;2.30;1.50;;;11.50;99.90;;;;;;5069302;28;20219;-76
2023/11/20 09:37:05;;;;;;;1.90;1.50;;;11.50;99.90;;;;;;5052414;28;20231;-76
2023/11/20 09:39:30;;;;;;;1.60;1.50;;;11.50;99.90;;;;;;5049446;28;20493;-76
2023/11/20 09:41:56;;;;;;;6.90;1.73;;;11.40;99.90;;;;;;5046557;28;20484;-76
2023/11/20 09:44:26;;;;;;;3.80;1.63;;;11.40;99.90;;;;;;5068590;28;20222;-76
2023/11/20 09:46:52;;;;;;;1.90;1.60;;;11.40;99.90;;;;;;5051012;28;20242;-76
2023/11/20 09:49:29;;;;;;;2.13;1.93;;;11.40;99.90;;;;;;5047496;28;20478;-76
2023/11/20 09:51:56;;;;;;;3.40;1.47;;;11.30;99.90;;;;;;5046223;28;20343;-76
2023/11/20 09:54:24;;;;;;;8.00;1.73;;;11.30;99.90;;;;;;5070381;28;20512;-76
2023/11/20 09:56:50;;;;;;;2.30;1.30;;;11.30;99.90;;;;;;5033875;28;21043;-76
2023/11/20 09:59:16;;;;;;;1.73;1.50;;;11.30;99.90;;;;;;5053829;28;20453;-76
2023/11/20 10:01:44;;;;;;;2.70;1.73;;;11.40;99.90;;;;;;5060503;28;20454;-76
2023/11/20 10:04:15;;;;;;;1.53;1.17;;;11.40;99.90;;;;;;5034421;28;20222;-76
2023/11/20 10:06:44;;;;;;;1.57;1.47;;;11.50;99.90;;;;;;5038447;28;20481;-77
2023/11/20 10:09:12;;;;;;;1.37;1.20;;;11.60;99.90;;;;;;5054493;28;20499;-75
2023/11/20 10:11:41;;;;;;;3.43;1.73;;;11.60;99.90;;;;;;5024843;28;20513;-76
2023/11/20 10:14:07;;;;;;;2.40;1.23;;;11.80;99.90;;;;;;5063567;28;20443;-75
2023/11/20 10:16:35;;;;;;;3.13;1.40;;;11.90;99.90;;;;;;5025674;28;20862;-76
2023/11/20 10:19:07;;;;;;;2.03;1.13;;;11.80;99.90;;;;;;5041922;28;20273;-76
2023/11/20 10:21:34;;;;;;;1.20;1.10;;;11.80;99.90;;;;;;5036610;28;20451;-76
2023/11/20 10:24:01;;;;;;;1.33;1.23;;;11.80;99.90;;;;;;5060647;28;20501;-75
2023/11/20 10:26:27;;;;;;;2.10;1.10;;;11.90;99.90;;;;;;5062537;28;20474;-76
2023/11/20 10:28:56;;;;;;;0.60;0.60;;;12.00;99.90;;;;;;5052953;28;20841;-76
2023/11/20 10:31:27;;;;;;;4.30;1.00;;;12.00;99.90;;;;;;5066983;28;20476;-76
2023/11/20 10:34:06;;;;;;;2.43;1.23;;;11.90;99.90;;;;;;5027239;28;20465;-76
2023/11/20 10:36:33;;;;;;;2.00;1.00;;;11.90;99.90;;;;;;5067905;28;20450;-76
2023/11/20 10:39:00;;;;;;;1.33;0.73;;;11.90;99.90;;;;;;5059024;28;20498;-76
2023/11/20 10:41:26;;;;;;;0.80;0.80;;;11.90;99.90;;;;;;5061808;28;20541;-76
2023/11/20 10:43:52;;;;;;;2.30;0.80;;;11.80;99.90;;;;;;5038662;28;20525;-76
2023/11/20 10:46:19;;;;;;;0.87;0.70;;;11.80;99.90;;;;;;5058467;28;20534;-76
2023/11/20 10:48:47;;;;;;;1.23;1.13;;;11.80;99.90;;;;;;5048539;28;20224;-77
2023/11/20 10:51:22;;;;;;;4.07;1.33;;;11.90;99.90;;;;;;5045420;28;20473;-76
2023/11/20 10:54:02;;;;;;;3.17;1.53;;;11.90;99.90;;;;;;5046406;28;20450;-76
2023/11/20 10:56:32;;;;;;;3.30;1.03;;;12.10;99.90;;;;;;5047203;28;21058;-76
2023/11/20 10:59:01;;;;;;;4.20;1.33;;;12.10;99.90;;;;;;5059047;28;20862;-75
2023/11/20 11:01:30;;;;;;;1.93;0.87;;;12.10;99.90;;;;;;5050624;28;20465;-76
2023/11/20 11:04:00;;;;;;;1.27;0.83;;;12.30;99.90;;;;;;5043437;28;20968;-74
2023/11/20 11:06:26;;;;;;;1.90;1.00;;;12.30;99.90;;;;;;5049441;28;20895;-76
2023/11/20 11:08:54;;;;;;;0.80;0.70;;;12.20;99.90;;;;;;5043642;28;20972;-75
2023/11/20 11:11:21;;;;;;;1.00;0.90;;;12.30;99.90;;;;;;5046091;28;20524;-76
2023/11/20 11:13:49;;;;;;;1.70;1.00;;;12.30;99.90;;;;;;5050294;28;20882;-76
2023/11/20 11:16:27;;;;;;;1.50;0.90;;;12.30;99.90;;;;;;5050746;28;20450;-76
2023/11/20 11:19:14;;;;;;;1.13;1.00;;;12.20;99.90;;;;;;5043364;28;20522;-78
2023/11/20 11:21:46;;;;;;;5.23;0.60;;;12.10;99.90;;;;;;5045267;28;20481;-76
2023/11/20 11:24:15;;;;;;;1.40;0.90;;;12.10;99.90;;;;;;5050443;28;20911;-76
2023/11/20 11:26:48;;;;;;;2.43;0.90;;;12.10;99.90;;;;;;5025649;28;20922;-76
2023/11/20 11:29:17;;;;;;;1.67;0.80;;;12.10;99.90;;;;;;5050492;28;20469;-75
2023/11/20 11:32:04;;;;;;;2.20;0.70;;;12.00;99.90;;;;;;5068091;28;20887;-76
2023/11/20 11:35:00;;;;;;;2.03;0.73;;;11.90;99.90;;;;;;5057398;28;20468;-76
2023/11/20 11:37:38;;;;;;;1.00;0.80;;;11.90;99.90;;;;;;5036354;28;20980;-76
2023/11/20 11:40:33;;;;;;;1.43;0.80;;;12.00;99.90;;;;;;5050566;28;20492;-76
2023/11/20 11:43:11;;;;;;;0.70;0.60;;;12.10;99.90;;;;;;5045184;28;20450;-77
2023/11/20 11:45:39;;;;;;;2.00;0.80;;;12.20;99.90;;;;;;5066510;28;20469;-76
2023/11/20 11:48:05;;;;;;;3.60;1.00;;;12.30;99.90;;;;;;5050814;28;20457;-77
2023/11/20 11:50:30;;;;;;;4.70;0.87;;;12.40;99.90;;;;;;5028067;28;20943;-76
2023/11/20 11:52:57;;;;;;;1.27;0.70;;;12.50;99.90;;;;;;5049367;28;20613;-76
2023/11/20 11:55:24;;;;;;;2.03;1.00;;;12.50;99.90;;;;;;5052943;28;20215;-76
2023/11/20 11:58:01;;;;;;;1.00;0.93;;;12.50;99.90;;;;;;5055219;28;20984;-76
2023/11/20 12:00:28;;;;;;;2.63;1.00;;;12.50;99.90;;;;;;5058242;28;20465;-76
2023/11/20 12:03:11;;;;;;;3.70;0.97;;;12.40;99.90;;;;;;5059385;28;20496;-76
2023/11/20 12:05:55;;;;;;;0.70;0.70;;;12.40;99.90;;;;;;5054292;28;20548;-76
2023/11/20 12:08:31;;;;;;;2.40;0.73;;;12.50;99.90;;;;;;5047401;28;20525;-76
2023/11/20 12:10:57;;;;;;;1.33;0.77;;;12.60;99.90;;;;;;5046701;28;20998;-75
2023/11/20 12:13:23;;;;;;;0.70;0.70;;;12.70;99.90;;;;;;5047250;28;20451;-76
2023/11/20 12:15:52;;;;;;;3.80;0.90;;;12.70;99.90;;;;;;5056130;28;20454;-76
2023/11/20 12:18:32;;;;;;;3.60;0.93;;;12.60;99.90;;;;;;5051418;28;20442;-75
2023/11/20 12:20:59;;;;;;;1.37;0.80;;;12.40;99.90;;;;;;5051468;28;20454;-76
2023/11/20 12:23:32;;;;;;;1.60;0.80;;;12.40;99.90;;;;;;5042813;28;20990;-76
2023/11/20 12:25:59;;;;;;;1.13;1.07;;;12.30;99.90;;;;;;5045201;28;20475;-76
2023/11/20 12:28:28;;;;;;;1.20;0.77;;;12.20;99.90;;;;;;5046565;28;20461;-76
2023/11/20 12:30:54;;;;;;;2.40;1.03;;;12.20;99.90;;;;;;5053299;28;21120;-75
2023/11/20 12:33:23;;;;;;;4.63;1.73;;;12.10;99.90;;;;;;5040389;28;20532;-76
2023/11/20 12:35:59;;;;;;;3.33;1.40;;;12.10;99.90;;;;;;5049597;28;20220;-76
2023/11/20 12:38:35;;;;;;;2.80;1.30;;;12.10;99.90;;;;;;5040097;28;20453;-76
2023/11/20 12:41:05;;;;;;;2.90;1.40;;;12.10;99.90;;;;;;5059717;28;20478;-75
2023/11/20 12:43:32;;;;;;;1.57;0.90;;;12.10;99.90;;;;;;5056886;28;20516;-76
2023/11/20 12:46:00;;;;;;;1.73;1.20;;;12.00;99.90;;;;;;5046109;28;20482;-75